Sunflower Cobalt — JI3646 — position and weather

sailwx.info

Track history (hours):
 
Tides and Currents Weather Stations Pressure Air Temp Water Temp Dewpoint Dewpoint Depression Visibility Wind Speed Wind Dir Waves Ship Positions

Sunflower Cobalt

Last reported at 2018-Jan-23 21:49 UTC. Time now 2018-Jan-24 05:54 UTC.
Position N 33°18' E 131°30'.

Length 146 m; draft 5.6 m.

Type: Passenger vessel. MMSI: 431300775.

Date/timePositionNaut miles runAvg speedWind from/ knotsBaromVisibWave heightAir tempDewpointWater temp
2018-Jan-23 21:49N 33°18' E 131°30'513.2
2018-Jan-23 21:27N 33°19' E 131°36'919.8
2018-Jan-23 21:00N 33°23' E 131°45'1121.3
2018-Jan-23 20:30N 33°31' E 131°54'1821.1
2018-Jan-23 19:38N 33°40' E 132°13'521.2
2018-Jan-23 19:25N 33°42' E 132°18'921.4
2018-Jan-23 19:00N 33°46' E 132°27'1121.3
2018-Jan-23 18:30N 33°54' E 132°36'1020.3
2018-Jan-23 18:00N 34°01' E 132°45'6816.4
2018-Jan-23 13:50N 34°26' E 134°02'719.4
2018-Jan-23 13:29N 34°25' E 134°10'919.9
2018-Jan-23 13:00N 34°25' E 134°22'1020.6
2018-Jan-23 12:30N 34°29' E 134°33'1020.1
2018-Jan-23 12:00N 34°32' E 134°45'1019.8
2018-Jan-23 11:30N 34°37' E 134°56'815.9
2018-Jan-23 11:00N 34°35' E 135°05'1020.0
2018-Jan-23 10:30N 34°36' E 135°17'612.7
2018-Jan-23 10:00N 34°38' E 135°25'0 0.0
2018-Jan-23 09:28N 34°38' E 135°25'0 0.0
2018-Jan-23 08:57N 34°38' E 135°25'0 0.0
2018-Jan-23 08:28N 34°38' E 135°25'0 0.0
2018-Jan-23 08:01N 34°38' E 135°25'0 0.1
2018-Jan-23 07:28N 34°38' E 135°25'0 0.1
2018-Jan-23 06:58N 34°38' E 135°25'0 0.0
2018-Jan-23 06:28N 34°38' E 135°25'0 0.0
2018-Jan-23 05:58N 34°38' E 135°25'0 0.1
2018-Jan-23 05:28N 34°38' E 135°25'0 0.1
2018-Jan-23 04:58N 34°38' E 135°25'0 0.1
2018-Jan-23 04:28N 34°38' E 135°25'0 0.1
2018-Jan-23 03:58N 34°38' E 135°25'0 0.0
2018-Jan-23 03:28N 34°38' E 135°25'0 0.0
2018-Jan-23 02:58N 34°38' E 135°25'0 0.0
2018-Jan-23 02:27N 34°38' E 135°25'0 0.1
2018-Jan-23 01:58N 34°38' E 135°25'0 0.1
2018-Jan-23 01:30N 34°38' E 135°25'0 0.1
2018-Jan-23 00:58N 34°38' E 135°25'0 0.1
2018-Jan-23 00:28N 34°38' E 135°25'0 0.0
2018-Jan-22 23:58N 34°38' E 135°25'0 0.0
2018-Jan-22 23:28N 34°38' E 135°25'0 0.0
2018-Jan-22 22:58N 34°38' E 135°25'0 0.0
2018-Jan-22 22:28N 34°38' E 135°25'0 0.1
2018-Jan-22 21:57N 34°38' E 135°25'0 0.1
2018-Jan-22 21:31N 34°38' E 135°25'2 4.4
2018-Jan-22 21:00N 34°38' E 135°22'918.1
2018-Jan-22 20:30N 34°35' E 135°12'1020.3
2018-Jan-22 20:00N 34°37' E 134°60'1122.2
2018-Jan-22 19:30N 34°32' E 134°48'1021.0
2018-Jan-22 19:00N 34°28' E 134°36'1120.9
2018-Jan-22 18:29N 34°24' E 134°24'1021.0
2018-Jan-22 18:00N 34°24' E 134°12'6916.9
2018-Jan-22 13:55N 34°07' E 132°51'922.0
2018-Jan-22 13:30N 33°59' E 132°45'1121.3
2018-Jan-22 13:00N 33°52' E 132°35'1021.1
2018-Jan-22 12:31N 33°46' E 132°25'1721.1
2018-Jan-22 11:41N 33°36' E 132°08'420.9
2018-Jan-22 11:30N 33°33' E 132°04'1021.1
2018-Jan-22 11:00N 33°27' E 131°54'1121.5
2018-Jan-22 10:30N 33°21' E 131°43'10 0.8
2018-Jan-21 21:34N 33°19' E 131°32'119.4
2018-Jan-21 21:29N 33°19' E 131°34'919.2
2018-Jan-21 21:00N 33°20' E 131°45'1019.2
2018-Jan-21 20:30N 33°24' E 131°55'2119.6
2018-Jan-21 19:27N 33°38' E 132°13'1021.3
2018-Jan-21 18:59N 33°44' E 132°23'1021.4
2018-Jan-21 18:30N 33°51' E 132°33'1121.2
2018-Jan-21 18:01N 33°57' E 132°42'7116.6
2018-Jan-21 13:42N 34°26' E 134°01'519.7
2018-Jan-21 13:25N 34°26' E 134°08'920.8
2018-Jan-21 13:00N 34°25' E 134°18'1020.8
2018-Jan-21 12:30N 34°28' E 134°30'1020.7
2018-Jan-21 12:00N 34°32' E 134°42'1020.7
2018-Jan-21 11:30N 34°35' E 134°54'918.1
2018-Jan-21 11:01N 34°36' E 135°04'1020.3
2018-Jan-21 10:30N 34°36' E 135°17'713.2
2018-Jan-21 10:00N 34°38' E 135°25'0 0.1
2018-Jan-21 09:30N 34°38' E 135°25'0 0.0
2018-Jan-21 09:00N 34°38' E 135°25'0 0.0
2018-Jan-21 08:30N 34°38' E 135°25'0 0.0
2018-Jan-21 08:00N 34°38' E 135°25'0 0.0
2018-Jan-21 07:30N 34°38' E 135°25'0 0.0
2018-Jan-21 07:00N 34°38' E 135°25'0 0.0
2018-Jan-21 06:30N 34°38' E 135°25'0 0.0
2018-Jan-21 06:00N 34°38' E 135°25'0 0.0
2018-Jan-21 05:30N 34°38' E 135°25'0 0.1
2018-Jan-21 05:00N 34°38' E 135°25'0 0.0
2018-Jan-21 04:30N 34°38' E 135°25'0 0.1
2018-Jan-21 04:00N 34°38' E 135°25'0 0.0
2018-Jan-21 03:30N 34°38' E 135°25'0 0.0
2018-Jan-21 03:00N 34°38' E 135°25'0 0.0
2018-Jan-21 02:30N 34°38' E 135°25'0 0.0
2018-Jan-21 02:00N 34°38' E 135°25'0 0.0
2018-Jan-21 01:30N 34°38' E 135°25'0 0.0
2018-Jan-21 01:00N 34°38' E 135°25'0 0.0
2018-Jan-21 00:30N 34°38' E 135°25'0 0.1
2018-Jan-21 00:00N 34°38' E 135°25'0 0.1
2018-Jan-20 23:30N 34°38' E 135°25'0 0.0
2018-Jan-20 23:00N 34°38' E 135°25'0 0.0
2018-Jan-20 22:30N 34°38' E 135°25'3 6.0
2018-Jan-20 22:00N 34°37' E 135°21'917.4
2018-Jan-20 21:30N 34°35' E 135°11'918.2
2018-Jan-20 21:01N 34°37' E 135°00'1019.8
2018-Jan-20 20:30N 34°33' E 134°50'1019.3
2018-Jan-20 20:00N 34°29' E 134°39'1018.9
2018-Jan-20 19:30N 34°26' E 134°28'918.3
2018-Jan-20 19:00N 34°23' E 134°18'1019.3
2018-Jan-20 18:30N 34°26' E 134°06'6817.1
2018-Jan-20 14:32N 34°05' E 132°48'121.8
2018-Jan-20 14:30N 34°04' E 132°48'1121.5
2018-Jan-20 14:00N 33°55' E 132°40'1121.2
2018-Jan-20 13:31N 33°48' E 132°31'1121.3
2018-Jan-20 13:00N 33°43' E 132°19'1121.3
2018-Jan-20 12:29N 33°37' E 132°09'1021.2
2018-Jan-20 12:00N 33°31' E 131°59'1121.4
2018-Jan-20 11:30N 33°25' E 131°48'1020.6
2018-Jan-20 11:00N 33°19' E 131°38'6 0.5
2018-Jan-19 22:35N 33°18' E 131°30'110.5
2018-Jan-19 22:30N 33°19' E 131°31'918.7
2018-Jan-19 21:59N 33°20' E 131°42'918.5
2018-Jan-19 21:30N 33°24' E 131°52'917.3
2018-Jan-19 21:00N 33°30' E 131°59'1319.6
2018-Jan-19 20:20N 33°38' E 132°12'720.1
2018-Jan-19 19:59N 33°42' E 132°19'1020.5
2018-Jan-19 19:30N 33°47' E 132°29'1120.9
2018-Jan-19 19:00N 33°55' E 132°38'7517.3
2018-Jan-19 14:39N 34°26' E 134°01'215.8
2018-Jan-19 14:30N 34°27' E 134°03'917.9
2018-Jan-19 14:01N 34°24' E 134°14'1020.0
2018-Jan-19 13:31N 34°26' E 134°25'1020.5
2018-Jan-19 13:01N 34°31' E 134°37'1020.8
2018-Jan-19 12:30N 34°34' E 134°48'1121.4
2018-Jan-19 12:01N 34°37' E 135°01'1020.0
2018-Jan-19 11:31N 34°36' E 135°13'918.1
2018-Jan-19 11:01N 34°38' E 135°24'1 1.3
2018-Jan-19 10:30N 34°38' E 135°25'0 0.0
2018-Jan-19 09:59N 34°38' E 135°25'0 0.0
2018-Jan-19 09:29N 34°38' E 135°25'0 0.0
2018-Jan-19 08:59N 34°38' E 135°25'0 0.0
2018-Jan-19 08:29N 34°38' E 135°25'0 0.0
2018-Jan-19 07:59N 34°38' E 135°25'0 0.1
2018-Jan-19 07:29N 34°38' E 135°25'0 0.0
2018-Jan-19 06:59N 34°38' E 135°25'0 0.0
2018-Jan-19 06:29N 34°38' E 135°25'0 0.0
2018-Jan-19 05:59N 34°38' E 135°25'0 0.0
2018-Jan-19 05:29N 34°38' E 135°25'0 0.1
2018-Jan-19 04:59N 34°38' E 135°25'0 0.1
2018-Jan-19 04:29N 34°38' E 135°25'0 0.0
2018-Jan-19 03:59N 34°38' E 135°25'0 0.0
2018-Jan-19 03:29N 34°38' E 135°25'0 0.0
2018-Jan-19 02:59N 34°38' E 135°25'0 0.1
2018-Jan-19 02:29N 34°38' E 135°25'0 0.0
2018-Jan-19 01:59N 34°38' E 135°25'0 0.1
2018-Jan-19 01:29N 34°38' E 135°25'0 0.0
2018-Jan-19 00:59N 34°38' E 135°25'0 0.1
2018-Jan-19 00:29N 34°38' E 135°25'0 0.1
2018-Jan-18 23:59N 34°38' E 135°25'0 0.0
2018-Jan-18 23:29N 34°38' E 135°25'0 0.0
2018-Jan-18 22:59N 34°38' E 135°25'0 0.0
2018-Jan-18 22:29N 34°38' E 135°25'0 0.0
2018-Jan-18 21:59N 34°38' E 135°25'0 0.0
2018-Jan-18 21:30N 34°38' E 135°25'4 7.5
2018-Jan-18 21:00N 34°37' E 135°21'918.3
2018-Jan-18 20:30N 34°34' E 135°10'918.0
2018-Jan-18 20:00N 34°37' E 134°60'1121.3
2018-Jan-18 19:31N 34°33' E 134°48'1020.1
2018-Jan-18 19:00N 34°29' E 134°36'1019.9
2018-Jan-18 18:30N 34°25' E 134°25'1019.9
2018-Jan-18 18:00N 34°24' E 134°13'7217.0
2018-Jan-18 13:46N 34°06' E 132°49'621.4
2018-Jan-18 13:30N 34°01' E 132°45'1121.1
2018-Jan-18 13:00N 33°53' E 132°36'1121.0
2018-Jan-18 12:30N 33°46' E 132°27'1321.5
2018-Jan-18 11:53N 33°38' E 132°14'821.4
2018-Jan-18 11:31N 33°34' E 132°06'1121.7
2018-Jan-18 11:00N 33°27' E 131°56'1020.7
2018-Jan-18 10:31N 33°22' E 131°45'1120.5
2018-Jan-18 09:59N 33°18' E 131°33'  
Track history (hours):
 
Tides and Currents Weather Stations Pressure Air Temp Water Temp Dewpoint Dewpoint Depression Visibility Wind Speed Wind Dir Waves Ship Positions

Sunflower Cobalt

Last reported at 2018-Jan-23 21:49 UTC. Time now 2018-Jan-24 05:54 UTC.
Position N 33°18' E 131°30'.

Length 146 m; draft 5.6 m.

Type: Passenger vessel. MMSI: 431300775.

Date/timePositionNaut miles runAvg speedWind from/ knotsBaromVisibWave heightAir tempDewpointWater temp
2018-Jan-23 21:49N 33°18' E 131°30'513.2
2018-Jan-23 21:27N 33°19' E 131°36'919.8
2018-Jan-23 21:00N 33°23' E 131°45'1121.3
2018-Jan-23 20:30N 33°31' E 131°54'1821.1
2018-Jan-23 19:38N 33°40' E 132°13'521.2
2018-Jan-23 19:25N 33°42' E 132°18'921.4
2018-Jan-23 19:00N 33°46' E 132°27'1121.3
2018-Jan-23 18:30N 33°54' E 132°36'1020.3
2018-Jan-23 18:00N 34°01' E 132°45'6816.4
2018-Jan-23 13:50N 34°26' E 134°02'719.4
2018-Jan-23 13:29N 34°25' E 134°10'919.9
2018-Jan-23 13:00N 34°25' E 134°22'1020.6
2018-Jan-23 12:30N 34°29' E 134°33'1020.1
2018-Jan-23 12:00N 34°32' E 134°45'1019.8
2018-Jan-23 11:30N 34°37' E 134°56'815.9
2018-Jan-23 11:00N 34°35' E 135°05'1020.0
2018-Jan-23 10:30N 34°36' E 135°17'612.7
2018-Jan-23 10:00N 34°38' E 135°25'0 0.0
2018-Jan-23 09:28N 34°38' E 135°25'0 0.0
2018-Jan-23 08:57N 34°38' E 135°25'0 0.0
2018-Jan-23 08:28N 34°38' E 135°25'0 0.0
2018-Jan-23 08:01N 34°38' E 135°25'0 0.1
2018-Jan-23 07:28N 34°38' E 135°25'0 0.1
2018-Jan-23 06:58N 34°38' E 135°25'0 0.0
2018-Jan-23 06:28N 34°38' E 135°25'0 0.0
2018-Jan-23 05:58N 34°38' E 135°25'0 0.1
2018-Jan-23 05:28N 34°38' E 135°25'0 0.1
2018-Jan-23 04:58N 34°38' E 135°25'0 0.1
2018-Jan-23 04:28N 34°38' E 135°25'0 0.1
2018-Jan-23 03:58N 34°38' E 135°25'0 0.0
2018-Jan-23 03:28N 34°38' E 135°25'0 0.0
2018-Jan-23 02:58N 34°38' E 135°25'0 0.0
2018-Jan-23 02:27N 34°38' E 135°25'0 0.1
2018-Jan-23 01:58N 34°38' E 135°25'0 0.1
2018-Jan-23 01:30N 34°38' E 135°25'0 0.1
2018-Jan-23 00:58N 34°38' E 135°25'0 0.1
2018-Jan-23 00:28N 34°38' E 135°25'0 0.0
2018-Jan-22 23:58N 34°38' E 135°25'0 0.0
2018-Jan-22 23:28N 34°38' E 135°25'0 0.0
2018-Jan-22 22:58N 34°38' E 135°25'0 0.0
2018-Jan-22 22:28N 34°38' E 135°25'0 0.1
2018-Jan-22 21:57N 34°38' E 135°25'0 0.1
2018-Jan-22 21:31N 34°38' E 135°25'2 4.4
2018-Jan-22 21:00N 34°38' E 135°22'918.1
2018-Jan-22 20:30N 34°35' E 135°12'1020.3
2018-Jan-22 20:00N 34°37' E 134°60'1122.2
2018-Jan-22 19:30N 34°32' E 134°48'1021.0
2018-Jan-22 19:00N 34°28' E 134°36'1120.9
2018-Jan-22 18:29N 34°24' E 134°24'1021.0
2018-Jan-22 18:00N 34°24' E 134°12'6916.9
2018-Jan-22 13:55N 34°07' E 132°51'922.0
2018-Jan-22 13:30N 33°59' E 132°45'1121.3
2018-Jan-22 13:00N 33°52' E 132°35'1021.1
2018-Jan-22 12:31N 33°46' E 132°25'1721.1
2018-Jan-22 11:41N 33°36' E 132°08'420.9
2018-Jan-22 11:30N 33°33' E 132°04'1021.1
2018-Jan-22 11:00N 33°27' E 131°54'1121.5
2018-Jan-22 10:30N 33°21' E 131°43'10 0.8
2018-Jan-21 21:34N 33°19' E 131°32'119.4
2018-Jan-21 21:29N 33°19' E 131°34'919.2
2018-Jan-21 21:00N 33°20' E 131°45'1019.2
2018-Jan-21 20:30N 33°24' E 131°55'2119.6
2018-Jan-21 19:27N 33°38' E 132°13'1021.3
2018-Jan-21 18:59N 33°44' E 132°23'1021.4
2018-Jan-21 18:30N 33°51' E 132°33'1121.2
2018-Jan-21 18:01N 33°57' E 132°42'7116.6
2018-Jan-21 13:42N 34°26' E 134°01'519.7
2018-Jan-21 13:25N 34°26' E 134°08'920.8
2018-Jan-21 13:00N 34°25' E 134°18'1020.8
2018-Jan-21 12:30N 34°28' E 134°30'1020.7
2018-Jan-21 12:00N 34°32' E 134°42'1020.7
2018-Jan-21 11:30N 34°35' E 134°54'918.1
2018-Jan-21 11:01N 34°36' E 135°04'1020.3
2018-Jan-21 10:30N 34°36' E 135°17'713.2
2018-Jan-21 10:00N 34°38' E 135°25'0 0.1
2018-Jan-21 09:30N 34°38' E 135°25'0 0.0
2018-Jan-21 09:00N 34°38' E 135°25'0 0.0
2018-Jan-21 08:30N 34°38' E 135°25'0 0.0
2018-Jan-21 08:00N 34°38' E 135°25'0 0.0
2018-Jan-21 07:30N 34°38' E 135°25'0 0.0
2018-Jan-21 07:00N 34°38' E 135°25'0 0.0
2018-Jan-21 06:30N 34°38' E 135°25'0 0.0
2018-Jan-21 06:00N 34°38' E 135°25'0 0.0
2018-Jan-21 05:30N 34°38' E 135°25'0 0.1
2018-Jan-21 05:00N 34°38' E 135°25'0 0.0
2018-Jan-21 04:30N 34°38' E 135°25'0 0.1
2018-Jan-21 04:00N 34°38' E 135°25'0 0.0
2018-Jan-21 03:30N 34°38' E 135°25'0 0.0
2018-Jan-21 03:00N 34°38' E 135°25'0 0.0
2018-Jan-21 02:30N 34°38' E 135°25'0 0.0
2018-Jan-21 02:00N 34°38' E 135°25'0 0.0
2018-Jan-21 01:30N 34°38' E 135°25'0 0.0
2018-Jan-21 01:00N 34°38' E 135°25'0 0.0
2018-Jan-21 00:30N 34°38' E 135°25'0 0.1
2018-Jan-21 00:00N 34°38' E 135°25'0 0.1
2018-Jan-20 23:30N 34°38' E 135°25'0 0.0
2018-Jan-20 23:00N 34°38' E 135°25'0 0.0
2018-Jan-20 22:30N 34°38' E 135°25'3 6.0
2018-Jan-20 22:00N 34°37' E 135°21'917.4
2018-Jan-20 21:30N 34°35' E 135°11'918.2
2018-Jan-20 21:01N 34°37' E 135°00'1019.8
2018-Jan-20 20:30N 34°33' E 134°50'1019.3
2018-Jan-20 20:00N 34°29' E 134°39'1018.9
2018-Jan-20 19:30N 34°26' E 134°28'918.3
2018-Jan-20 19:00N 34°23' E 134°18'1019.3
2018-Jan-20 18:30N 34°26' E 134°06'6817.1
2018-Jan-20 14:32N 34°05' E 132°48'121.8
2018-Jan-20 14:30N 34°04' E 132°48'1121.5
2018-Jan-20 14:00N 33°55' E 132°40'1121.2
2018-Jan-20 13:31N 33°48' E 132°31'1121.3
2018-Jan-20 13:00N 33°43' E 132°19'1121.3
2018-Jan-20 12:29N 33°37' E 132°09'1021.2
2018-Jan-20 12:00N 33°31' E 131°59'1121.4
2018-Jan-20 11:30N 33°25' E 131°48'1020.6
2018-Jan-20 11:00N 33°19' E 131°38'6 0.5
2018-Jan-19 22:35N 33°18' E 131°30'110.5
2018-Jan-19 22:30N 33°19' E 131°31'918.7
2018-Jan-19 21:59N 33°20' E 131°42'918.5
2018-Jan-19 21:30N 33°24' E 131°52'917.3
2018-Jan-19 21:00N 33°30' E 131°59'1319.6
2018-Jan-19 20:20N 33°38' E 132°12'720.1
2018-Jan-19 19:59N 33°42' E 132°19'1020.5
2018-Jan-19 19:30N 33°47' E 132°29'1120.9
2018-Jan-19 19:00N 33°55' E 132°38'7517.3
2018-Jan-19 14:39N 34°26' E 134°01'215.8
2018-Jan-19 14:30N 34°27' E 134°03'917.9
2018-Jan-19 14:01N 34°24' E 134°14'1020.0
2018-Jan-19 13:31N 34°26' E 134°25'1020.5
2018-Jan-19 13:01N 34°31' E 134°37'1020.8
2018-Jan-19 12:30N 34°34' E 134°48'1121.4
2018-Jan-19 12:01N 34°37' E 135°01'1020.0
2018-Jan-19 11:31N 34°36' E 135°13'918.1
2018-Jan-19 11:01N 34°38' E 135°24'1 1.3
2018-Jan-19 10:30N 34°38' E 135°25'0 0.0
2018-Jan-19 09:59N 34°38' E 135°25'0 0.0
2018-Jan-19 09:29N 34°38' E 135°25'0 0.0
2018-Jan-19 08:59N 34°38' E 135°25'0 0.0
2018-Jan-19 08:29N 34°38' E 135°25'0 0.0
2018-Jan-19 07:59N 34°38' E 135°25'0 0.1
2018-Jan-19 07:29N 34°38' E 135°25'0 0.0
2018-Jan-19 06:59N 34°38' E 135°25'0 0.0
2018-Jan-19 06:29N 34°38' E 135°25'0 0.0
2018-Jan-19 05:59N 34°38' E 135°25'0 0.0
2018-Jan-19 05:29N 34°38' E 135°25'0 0.1
2018-Jan-19 04:59N 34°38' E 135°25'0 0.1
2018-Jan-19 04:29N 34°38' E 135°25'0 0.0
2018-Jan-19 03:59N 34°38' E 135°25'0 0.0
2018-Jan-19 03:29N 34°38' E 135°25'0 0.0
2018-Jan-19 02:59N 34°38' E 135°25'0 0.1
2018-Jan-19 02:29N 34°38' E 135°25'0 0.0
2018-Jan-19 01:59N 34°38' E 135°25'0 0.1
2018-Jan-19 01:29N 34°38' E 135°25'0 0.0
2018-Jan-19 00:59N 34°38' E 135°25'0 0.1
2018-Jan-19 00:29N 34°38' E 135°25'0 0.1
2018-Jan-18 23:59N 34°38' E 135°25'0 0.0
2018-Jan-18 23:29N 34°38' E 135°25'0 0.0
2018-Jan-18 22:59N 34°38' E 135°25'0 0.0
2018-Jan-18 22:29N 34°38' E 135°25'0 0.0
2018-Jan-18 21:59N 34°38' E 135°25'0 0.0
2018-Jan-18 21:30N 34°38' E 135°25'4 7.5
2018-Jan-18 21:00N 34°37' E 135°21'918.3
2018-Jan-18 20:30N 34°34' E 135°10'918.0
2018-Jan-18 20:00N 34°37' E 134°60'1121.3
2018-Jan-18 19:31N 34°33' E 134°48'1020.1
2018-Jan-18 19:00N 34°29' E 134°36'1019.9
2018-Jan-18 18:30N 34°25' E 134°25'1019.9
2018-Jan-18 18:00N 34°24' E 134°13'7217.0
2018-Jan-18 13:46N 34°06' E 132°49'621.4
2018-Jan-18 13:30N 34°01' E 132°45'1121.1
2018-Jan-18 13:00N 33°53' E 132°36'1121.0
2018-Jan-18 12:30N 33°46' E 132°27'1321.5
2018-Jan-18 11:53N 33°38' E 132°14'821.4
2018-Jan-18 11:31N 33°34' E 132°06'1121.7
2018-Jan-18 11:00N 33°27' E 131°56'1020.7
2018-Jan-18 10:31N 33°22' E 131°45'1120.5
2018-Jan-18 09:59N 33°18' E 131°33'  

Dump ship's entire track history